sensor_id;sensor_type;location;lat;lon;timestamp;P1;durP1;ratioP1;P2;durP2;ratioP2
7881;SDS011;3986;41.884;23.466;2022-09-29T00:00:46;18.07;;;14.73;;
7881;SDS011;3986;41.884;23.466;2022-09-29T00:03:14;16.07;;;14.23;;
7881;SDS011;3986;41.884;23.466;2022-09-29T00:05:45;16.87;;;14.67;;
7881;SDS011;3986;41.884;23.466;2022-09-29T00:08:13;17.20;;;15.43;;
7881;SDS011;3986;41.884;23.466;2022-09-29T00:10:41;18.97;;;15.60;;
7881;SDS011;3986;41.884;23.466;2022-09-29T00:13:09;16.97;;;15.27;;
7881;SDS011;3986;41.884;23.466;2022-09-29T00:15:36;17.23;;;15.50;;
7881;SDS011;3986;41.884;23.466;2022-09-29T00:18:03;22.13;;;16.07;;
7881;SDS011;3986;41.884;23.466;2022-09-29T00:20:30;23.70;;;16.10;;
7881;SDS011;3986;41.884;23.466;2022-09-29T00:22:56;19.20;;;17.47;;
7881;SDS011;3986;41.884;23.466;2022-09-29T00:25:23;26.50;;;16.10;;
7881;SDS011;3986;41.884;23.466;2022-09-29T00:27:50;25.07;;;15.33;;
7881;SDS011;3986;41.884;23.466;2022-09-29T00:30:18;24.73;;;16.47;;
7881;SDS011;3986;41.884;23.466;2022-09-29T00:32:45;19.83;;;14.43;;
7881;SDS011;3986;41.884;23.466;2022-09-29T00:35:12;13.77;;;12.17;;
7881;SDS011;3986;41.884;23.466;2022-09-29T00:37:42;14.33;;;11.37;;
7881;SDS011;3986;41.884;23.466;2022-09-29T00:40:09;12.70;;;10.07;;
7881;SDS011;3986;41.884;23.466;2022-09-29T00:42:36;13.33;;;11.10;;
7881;SDS011;3986;41.884;23.466;2022-09-29T00:45:13;21.97;;;11.50;;
7881;SDS011;3986;41.884;23.466;2022-09-29T00:47:45;11.37;;;10.30;;
7881;SDS011;3986;41.884;23.466;2022-09-29T00:50:18;15.73;;;12.20;;
7881;SDS011;3986;41.884;23.466;2022-09-29T00:52:48;12.87;;;10.97;;
7881;SDS011;3986;41.884;23.466;2022-09-29T00:55:19;15.30;;;10.90;;
7881;SDS011;3986;41.884;23.466;2022-09-29T00:57:51;21.63;;;12.70;;
7881;SDS011;3986;41.884;23.466;2022-09-29T01:00:22;13.63;;;11.83;;
7881;SDS011;3986;41.884;23.466;2022-09-29T01:02:52;17.80;;;14.57;;
7881;SDS011;3986;41.884;23.466;2022-09-29T01:05:24;17.80;;;16.10;;
7881;SDS011;3986;41.884;23.466;2022-09-29T01:07:54;22.63;;;15.93;;
7881;SDS011;3986;41.884;23.466;2022-09-29T01:10:21;21.13;;;17.13;;
7881;SDS011;3986;41.884;23.466;2022-09-29T01:12:48;18.23;;;15.97;;
7881;SDS011;3986;41.884;23.466;2022-09-29T01:15:16;17.87;;;16.03;;
7881;SDS011;3986;41.884;23.466;2022-09-29T01:17:45;16.90;;;15.30;;
7881;SDS011;3986;41.884;23.466;2022-09-29T01:20:15;19.50;;;17.70;;
7881;SDS011;3986;41.884;23.466;2022-09-29T01:28:57;25.90;;;23.10;;
7881;SDS011;3986;41.884;23.466;2022-09-29T01:31:36;29.70;;;23.97;;
7881;SDS011;3986;41.884;23.466;2022-09-29T01:34:12;27.73;;;25.00;;
7881;SDS011;3986;41.884;23.466;2022-09-29T01:36:50;26.40;;;23.83;;
7881;SDS011;3986;41.884;23.466;2022-09-29T01:39:29;35.80;;;26.00;;
7881;SDS011;3986;41.884;23.466;2022-09-29T01:41:59;38.23;;;25.50;;
7881;SDS011;3986;41.884;23.466;2022-09-29T01:44:31;29.37;;;23.60;;
7881;SDS011;3986;41.884;23.466;2022-09-29T01:47:04;39.13;;;24.77;;
7881;SDS011;3986;41.884;23.466;2022-09-29T01:49:36;45.67;;;24.27;;
7881;SDS011;3986;41.884;23.466;2022-09-29T01:52:05;27.17;;;23.57;;
7881;SDS011;3986;41.884;23.466;2022-09-29T01:54:38;34.60;;;26.00;;
7881;SDS011;3986;41.884;23.466;2022-09-29T01:57:11;26.70;;;24.17;;
7881;SDS011;3986;41.884;23.466;2022-09-29T01:59:42;24.00;;;21.80;;
7881;SDS011;3986;41.884;23.466;2022-09-29T02:02:14;23.57;;;21.23;;
7881;SDS011;3986;41.884;23.466;2022-09-29T02:04:47;22.80;;;20.70;;
7881;SDS011;3986;41.884;23.466;2022-09-29T02:07:20;21.27;;;19.13;;
7881;SDS011;3986;41.884;23.466;2022-09-29T02:09:51;23.43;;;20.77;;
7881;SDS011;3986;41.884;23.466;2022-09-29T02:12:21;19.47;;;17.47;;
7881;SDS011;3986;41.884;23.466;2022-09-29T02:14:51;20.77;;;18.63;;
7881;SDS011;3986;41.884;23.466;2022-09-29T02:17:21;21.97;;;19.87;;
7881;SDS011;3986;41.884;23.466;2022-09-29T02:19:51;29.97;;;26.90;;
7881;SDS011;3986;41.884;23.466;2022-09-29T02:22:19;31.17;;;27.43;;
7881;SDS011;3986;41.884;23.466;2022-09-29T02:24:46;29.40;;;26.20;;
7881;SDS011;3986;41.884;23.466;2022-09-29T02:27:14;28.53;;;25.43;;
7881;SDS011;3986;41.884;23.466;2022-09-29T02:29:42;25.43;;;22.70;;
7881;SDS011;3986;41.884;23.466;2022-09-29T02:32:10;36.33;;;23.20;;
7881;SDS011;3986;41.884;23.466;2022-09-29T02:34:38;29.27;;;22.27;;
7881;SDS011;3986;41.884;23.466;2022-09-29T02:37:13;28.47;;;22.83;;
7881;SDS011;3986;41.884;23.466;2022-09-29T02:39:50;25.00;;;22.33;;
7881;SDS011;3986;41.884;23.466;2022-09-29T02:42:24;29.97;;;27.10;;
7881;SDS011;3986;41.884;23.466;2022-09-29T02:45:02;33.83;;;25.73;;
7881;SDS011;3986;41.884;23.466;2022-09-29T02:47:47;36.77;;;25.87;;
7881;SDS011;3986;41.884;23.466;2022-09-29T02:50:40;29.03;;;25.43;;
7881;SDS011;3986;41.884;23.466;2022-09-29T02:53:17;28.33;;;25.73;;
7881;SDS011;3986;41.884;23.466;2022-09-29T02:55:54;28.87;;;26.10;;
7881;SDS011;3986;41.884;23.466;2022-09-29T02:58:25;28.80;;;25.93;;
7881;SDS011;3986;41.884;23.466;2022-09-29T03:00:56;28.97;;;26.20;;
7881;SDS011;3986;41.884;23.466;2022-09-29T03:03:23;34.00;;;30.87;;
7881;SDS011;3986;41.884;23.466;2022-09-29T03:05:52;81.40;;;74.50;;
7881;SDS011;3986;41.884;23.466;2022-09-29T03:08:19;87.00;;;80.23;;
7881;SDS011;3986;41.884;23.466;2022-09-29T03:10:46;53.30;;;48.80;;
7881;SDS011;3986;41.884;23.466;2022-09-29T03:13:12;59.23;;;53.23;;
7881;SDS011;3986;41.884;23.466;2022-09-29T03:15:39;57.80;;;51.13;;
7881;SDS011;3986;41.884;23.466;2022-09-29T03:18:06;59.17;;;53.13;;
7881;SDS011;3986;41.884;23.466;2022-09-29T03:20:33;54.37;;;48.40;;
7881;SDS011;3986;41.884;23.466;2022-09-29T03:23:01;46.77;;;41.87;;
7881;SDS011;3986;41.884;23.466;2022-09-29T03:25:28;48.47;;;43.63;;
7881;SDS011;3986;41.884;23.466;2022-09-29T03:27:55;36.43;;;32.97;;
7881;SDS011;3986;41.884;23.466;2022-09-29T03:30:22;41.73;;;37.40;;
7881;SDS011;3986;41.884;23.466;2022-09-29T03:32:48;52.87;;;47.27;;
7881;SDS011;3986;41.884;23.466;2022-09-29T03:35:16;42.43;;;38.10;;
7881;SDS011;3986;41.884;23.466;2022-09-29T03:37:43;48.47;;;38.47;;
7881;SDS011;3986;41.884;23.466;2022-09-29T03:40:11;55.67;;;48.43;;
7881;SDS011;3986;41.884;23.466;2022-09-29T03:42:38;49.67;;;44.37;;
7881;SDS011;3986;41.884;23.466;2022-09-29T03:45:05;55.13;;;49.43;;
7881;SDS011;3986;41.884;23.466;2022-09-29T03:47:32;82.40;;;74.23;;
7881;SDS011;3986;41.884;23.466;2022-09-29T03:49:59;59.80;;;54.30;;
7881;SDS011;3986;41.884;23.466;2022-09-29T03:52:26;59.67;;;54.57;;
7881;SDS011;3986;41.884;23.466;2022-09-29T03:54:53;64.20;;;58.70;;
7881;SDS011;3986;41.884;23.466;2022-09-29T03:57:21;65.87;;;60.17;;
7881;SDS011;3986;41.884;23.466;2022-09-29T03:59:48;49.70;;;44.57;;
7881;SDS011;3986;41.884;23.466;2022-09-29T04:02:15;50.03;;;42.40;;
7881;SDS011;3986;41.884;23.466;2022-09-29T04:04:44;36.43;;;29.83;;
7881;SDS011;3986;41.884;23.466;2022-09-29T04:07:10;48.07;;;33.77;;
7881;SDS011;3986;41.884;23.466;2022-09-29T04:09:37;39.77;;;31.70;;
7881;SDS011;3986;41.884;23.466;2022-09-29T04:12:04;33.33;;;26.57;;
7881;SDS011;3986;41.884;23.466;2022-09-29T04:14:32;26.70;;;24.20;;
7881;SDS011;3986;41.884;23.466;2022-09-29T04:16:59;27.03;;;24.53;;
7881;SDS011;3986;41.884;23.466;2022-09-29T04:19:26;35.80;;;24.53;;
7881;SDS011;3986;41.884;23.466;2022-09-29T04:21:53;28.43;;;25.37;;
7881;SDS011;3986;41.884;23.466;2022-09-29T04:24:21;45.03;;;29.43;;
7881;SDS011;3986;41.884;23.466;2022-09-29T04:26:48;46.83;;;32.43;;
7881;SDS011;3986;41.884;23.466;2022-09-29T04:29:14;41.73;;;27.47;;
7881;SDS011;3986;41.884;23.466;2022-09-29T04:31:43;50.17;;;32.33;;
7881;SDS011;3986;41.884;23.466;2022-09-29T04:34:09;40.73;;;30.83;;
7881;SDS011;3986;41.884;23.466;2022-09-29T04:36:36;35.97;;;27.70;;
7881;SDS011;3986;41.884;23.466;2022-09-29T04:39:03;43.67;;;31.17;;
7881;SDS011;3986;41.884;23.466;2022-09-29T04:41:30;40.07;;;33.00;;
7881;SDS011;3986;41.884;23.466;2022-09-29T04:44:00;52.33;;;36.17;;
7881;SDS011;3986;41.884;23.466;2022-09-29T04:46:27;41.03;;;33.70;;
7881;SDS011;3986;41.884;23.466;2022-09-29T04:48:56;46.17;;;35.90;;
7881;SDS011;3986;41.884;23.466;2022-09-29T04:51:22;37.80;;;32.53;;
7881;SDS011;3986;41.884;23.466;2022-09-29T04:53:49;42.27;;;33.13;;
7881;SDS011;3986;41.884;23.466;2022-09-29T04:56:17;45.73;;;32.57;;
7881;SDS011;3986;41.884;23.466;2022-09-29T04:58:44;52.40;;;37.70;;
7881;SDS011;3986;41.884;23.466;2022-09-29T05:01:11;62.07;;;37.47;;
7881;SDS011;3986;41.884;23.466;2022-09-29T05:03:38;50.53;;;35.77;;
7881;SDS011;3986;41.884;23.466;2022-09-29T05:06:07;44.73;;;38.93;;
7881;SDS011;3986;41.884;23.466;2022-09-29T05:08:34;43.10;;;38.50;;
7881;SDS011;3986;41.884;23.466;2022-09-29T05:11:02;41.93;;;37.33;;
7881;SDS011;3986;41.884;23.466;2022-09-29T05:13:30;68.90;;;48.10;;
7881;SDS011;3986;41.884;23.466;2022-09-29T05:15:57;48.57;;;43.60;;
7881;SDS011;3986;41.884;23.466;2022-09-29T05:18:25;48.23;;;42.50;;
7881;SDS011;3986;41.884;23.466;2022-09-29T05:20:52;63.93;;;44.27;;
7881;SDS011;3986;41.884;23.466;2022-09-29T05:23:20;53.27;;;38.13;;
7881;SDS011;3986;41.884;23.466;2022-09-29T05:25:47;56.13;;;39.20;;
7881;SDS011;3986;41.884;23.466;2022-09-29T05:28:14;60.80;;;38.87;;
7881;SDS011;3986;41.884;23.466;2022-09-29T05:30:40;91.97;;;64.43;;
7881;SDS011;3986;41.884;23.466;2022-09-29T05:33:07;58.90;;;39.60;;
7881;SDS011;3986;41.884;23.466;2022-09-29T05:35:35;60.30;;;39.50;;
7881;SDS011;3986;41.884;23.466;2022-09-29T05:38:02;66.27;;;43.70;;
7881;SDS011;3986;41.884;23.466;2022-09-29T05:40:30;50.93;;;34.90;;
7881;SDS011;3986;41.884;23.466;2022-09-29T05:42:57;51.10;;;34.07;;
7881;SDS011;3986;41.884;23.466;2022-09-29T05:45:25;83.40;;;34.73;;
7881;SDS011;3986;41.884;23.466;2022-09-29T05:47:52;68.33;;;34.93;;
7881;SDS011;3986;41.884;23.466;2022-09-29T05:50:19;59.03;;;30.50;;
7881;SDS011;3986;41.884;23.466;2022-09-29T05:52:46;66.80;;;31.93;;
7881;SDS011;3986;41.884;23.466;2022-09-29T05:55:13;44.90;;;30.20;;
7881;SDS011;3986;41.884;23.466;2022-09-29T05:57:44;56.20;;;27.53;;
7881;SDS011;3986;41.884;23.466;2022-09-29T06:00:13;51.47;;;27.07;;
7881;SDS011;3986;41.884;23.466;2022-09-29T06:02:40;51.70;;;26.93;;
7881;SDS011;3986;41.884;23.466;2022-09-29T06:05:07;44.97;;;27.77;;
7881;SDS011;3986;41.884;23.466;2022-09-29T06:07:34;42.70;;;30.63;;
7881;SDS011;3986;41.884;23.466;2022-09-29T06:10:01;57.43;;;38.37;;
7881;SDS011;3986;41.884;23.466;2022-09-29T06:12:32;59.87;;;35.93;;
7881;SDS011;3986;41.884;23.466;2022-09-29T06:15:01;52.63;;;37.90;;
7881;SDS011;3986;41.884;23.466;2022-09-29T06:17:28;74.33;;;42.07;;
7881;SDS011;3986;41.884;23.466;2022-09-29T06:19:55;55.57;;;41.20;;
7881;SDS011;3986;41.884;23.466;2022-09-29T06:22:22;75.53;;;48.77;;
7881;SDS011;3986;41.884;23.466;2022-09-29T06:24:49;76.70;;;47.43;;
7881;SDS011;3986;41.884;23.466;2022-09-29T06:27:15;71.20;;;45.73;;
7881;SDS011;3986;41.884;23.466;2022-09-29T06:29:42;56.17;;;42.93;;
7881;SDS011;3986;41.884;23.466;2022-09-29T06:32:10;59.77;;;42.17;;
7881;SDS011;3986;41.884;23.466;2022-09-29T06:34:37;52.87;;;37.70;;
7881;SDS011;3986;41.884;23.466;2022-09-29T06:37:24;65.90;;;37.00;;
7881;SDS011;3986;41.884;23.466;2022-09-29T06:39:59;72.67;;;45.13;;
7881;SDS011;3986;41.884;23.466;2022-09-29T06:42:27;68.07;;;37.93;;
7881;SDS011;3986;41.884;23.466;2022-09-29T06:44:54;52.03;;;37.63;;
7881;SDS011;3986;41.884;23.466;2022-09-29T06:47:22;53.60;;;36.10;;
7881;SDS011;3986;41.884;23.466;2022-09-29T06:49:49;56.67;;;36.20;;
7881;SDS011;3986;41.884;23.466;2022-09-29T06:52:16;56.90;;;36.93;;
7881;SDS011;3986;41.884;23.466;2022-09-29T06:54:43;53.23;;;37.00;;
7881;SDS011;3986;41.884;23.466;2022-09-29T06:57:09;42.87;;;36.60;;
7881;SDS011;3986;41.884;23.466;2022-09-29T06:59:37;49.53;;;36.60;;
7881;SDS011;3986;41.884;23.466;2022-09-29T07:02:04;81.90;;;35.83;;
7881;SDS011;3986;41.884;23.466;2022-09-29T07:04:33;53.30;;;39.23;;
7881;SDS011;3986;41.884;23.466;2022-09-29T07:07:00;62.47;;;39.47;;
7881;SDS011;3986;41.884;23.466;2022-09-29T07:09:26;56.67;;;38.30;;
7881;SDS011;3986;41.884;23.466;2022-09-29T07:11:53;56.93;;;36.00;;
7881;SDS011;3986;41.884;23.466;2022-09-29T07:14:21;56.50;;;29.03;;
7881;SDS011;3986;41.884;23.466;2022-09-29T07:16:49;60.33;;;29.63;;
7881;SDS011;3986;41.884;23.466;2022-09-29T07:19:17;59.73;;;31.17;;
7881;SDS011;3986;41.884;23.466;2022-09-29T07:21:47;47.37;;;33.53;;
7881;SDS011;3986;41.884;23.466;2022-09-29T07:24:14;42.90;;;32.63;;
7881;SDS011;3986;41.884;23.466;2022-09-29T07:26:42;50.90;;;33.20;;
7881;SDS011;3986;41.884;23.466;2022-09-29T07:29:09;47.50;;;29.87;;
7881;SDS011;3986;41.884;23.466;2022-09-29T07:31:36;53.23;;;33.00;;
7881;SDS011;3986;41.884;23.466;2022-09-29T07:34:04;50.43;;;29.50;;
7881;SDS011;3986;41.884;23.466;2022-09-29T07:36:31;68.63;;;36.60;;
7881;SDS011;3986;41.884;23.466;2022-09-29T07:39:00;68.60;;;33.43;;
7881;SDS011;3986;41.884;23.466;2022-09-29T07:41:26;63.83;;;35.17;;
7881;SDS011;3986;41.884;23.466;2022-09-29T07:43:53;84.93;;;35.85;;
7881;SDS011;3986;41.884;23.466;2022-09-29T07:46:20;70.03;;;34.53;;
7881;SDS011;3986;41.884;23.466;2022-09-29T07:48:47;83.57;;;33.78;;
7881;SDS011;3986;41.884;23.466;2022-09-29T07:51:14;60.30;;;40.85;;
7881;SDS011;3986;41.884;23.466;2022-09-29T07:53:43;53.50;;;22.98;;
7881;SDS011;3986;41.884;23.466;2022-09-29T07:56:12;49.13;;;20.38;;
7881;SDS011;3986;41.884;23.466;2022-09-29T07:58:40;82.93;;;25.25;;
7881;SDS011;3986;41.884;23.466;2022-09-29T08:01:08;55.67;;;21.55;;
7881;SDS011;3986;41.884;23.466;2022-09-29T08:03:37;47.30;;;21.25;;
7881;SDS011;3986;41.884;23.466;2022-09-29T08:06:04;50.30;;;22.20;;
7881;SDS011;3986;41.884;23.466;2022-09-29T08:08:31;53.30;;;19.70;;
7881;SDS011;3986;41.884;23.466;2022-09-29T08:11:00;40.15;;;16.52;;
7881;SDS011;3986;41.884;23.466;2022-09-29T08:13:30;41.45;;;16.02;;
7881;SDS011;3986;41.884;23.466;2022-09-29T08:15:57;46.10;;;18.40;;
7881;SDS011;3986;41.884;23.466;2022-09-29T08:18:25;56.90;;;18.30;;
7881;SDS011;3986;41.884;23.466;2022-09-29T08:20:52;55.10;;;23.77;;
7881;SDS011;3986;41.884;23.466;2022-09-29T08:23:19;39.90;;;14.90;;
7881;SDS011;3986;41.884;23.466;2022-09-29T08:25:46;50.30;;;15.77;;
7881;SDS011;3986;41.884;23.466;2022-09-29T08:28:13;61.45;;;16.35;;
7881;SDS011;3986;41.884;23.466;2022-09-29T08:30:41;82.18;;;18.63;;
7881;SDS011;3986;41.884;23.466;2022-09-29T08:33:08;44.28;;;16.77;;
7881;SDS011;3986;41.884;23.466;2022-09-29T08:35:39;49.55;;;21.00;;
7881;SDS011;3986;41.884;23.466;2022-09-29T08:38:06;44.38;;;17.70;;
7881;SDS011;3986;41.884;23.466;2022-09-29T08:40:32;39.03;;;16.73;;
7881;SDS011;3986;41.884;23.466;2022-09-29T08:43:03;87.85;;;19.50;;
7881;SDS011;3986;41.884;23.466;2022-09-29T08:45:38;43.80;;;16.15;;
7881;SDS011;3986;41.884;23.466;2022-09-29T08:48:10;53.70;;;25.08;;
7881;SDS011;3986;41.884;23.466;2022-09-29T08:50:40;34.28;;;14.50;;
7881;SDS011;3986;41.884;23.466;2022-09-29T08:53:13;44.33;;;15.40;;
7881;SDS011;3986;41.884;23.466;2022-09-29T08:55:43;56.05;;;16.00;;
7881;SDS011;3986;41.884;23.466;2022-09-29T08:58:13;61.45;;;15.95;;
7881;SDS011;3986;41.884;23.466;2022-09-29T09:00:44;54.65;;;17.48;;
7881;SDS011;3986;41.884;23.466;2022-09-29T09:06:35;61.10;;;12.60;;
7881;SDS011;3986;41.884;23.466;2022-09-29T09:09:21;68.53;;;13.02;;
7881;SDS011;3986;41.884;23.466;2022-09-29T09:12:06;73.72;;;13.70;;
7881;SDS011;3986;41.884;23.466;2022-09-29T09:14:56;82.50;;;14.98;;
7881;SDS011;3986;41.884;23.466;2022-09-29T09:17:44;97.28;;;15.32;;
7881;SDS011;3986;41.884;23.466;2022-09-29T09:20:26;160.50;;;18.08;;
7881;SDS011;3986;41.884;23.466;2022-09-29T09:22:59;88.43;;;12.63;;
7881;SDS011;3986;41.884;23.466;2022-09-29T09:25:30;108.35;;;13.27;;
7881;SDS011;3986;41.884;23.466;2022-09-29T09:28:02;188.30;;;18.55;;
7881;SDS011;3986;41.884;23.466;2022-09-29T09:30:34;98.07;;;12.23;;
7881;SDS011;3986;41.884;23.466;2022-09-29T09:33:08;219.40;;;19.15;;
7881;SDS011;3986;41.884;23.466;2022-09-29T09:35:44;138.25;;;12.27;;
7881;SDS011;3986;41.884;23.466;2022-09-29T09:38:14;92.05;;;10.57;;
7881;SDS011;3986;41.884;23.466;2022-09-29T09:40:44;88.18;;;9.50;;
7881;SDS011;3986;41.884;23.466;2022-09-29T09:43:15;128.00;;;10.57;;
7881;SDS011;3986;41.884;23.466;2022-09-29T09:45:46;198.13;;;12.63;;
7881;SDS011;3986;41.884;23.466;2022-09-29T09:48:19;152.27;;;12.07;;
7881;SDS011;3986;41.884;23.466;2022-09-29T09:50:51;106.65;;;9.93;;
7881;SDS011;3986;41.884;23.466;2022-09-29T09:53:19;68.40;;;7.28;;
7881;SDS011;3986;41.884;23.466;2022-09-29T09:55:52;97.25;;;9.10;;
7881;SDS011;3986;41.884;23.466;2022-09-29T09:58:29;117.75;;;9.90;;
7881;SDS011;3986;41.884;23.466;2022-09-29T10:01:04;148.77;;;12.35;;
7881;SDS011;3986;41.884;23.466;2022-09-29T10:03:35;124.20;;;9.63;;
7881;SDS011;3986;41.884;23.466;2022-09-29T10:06:03;96.82;;;8.05;;
7881;SDS011;3986;41.884;23.466;2022-09-29T10:08:32;76.53;;;7.13;;
7881;SDS011;3986;41.884;23.466;2022-09-29T10:11:04;142.95;;;10.68;;
7881;SDS011;3986;41.884;23.466;2022-09-29T10:13:46;204.85;;;14.43;;
7881;SDS011;3986;41.884;23.466;2022-09-29T10:16:17;91.05;;;8.27;;
7881;SDS011;3986;41.884;23.466;2022-09-29T10:18:49;44.13;;;6.82;;
7881;SDS011;3986;41.884;23.466;2022-09-29T10:21:18;120.03;;;10.02;;
7881;SDS011;3986;41.884;23.466;2022-09-29T10:23:49;92.78;;;10.85;;
7881;SDS011;3986;41.884;23.466;2022-09-29T10:26:17;140.05;;;11.32;;
7881;SDS011;3986;41.884;23.466;2022-09-29T10:28:51;97.38;;;8.60;;
7881;SDS011;3986;41.884;23.466;2022-09-29T10:31:21;144.13;;;11.20;;
7881;SDS011;3986;41.884;23.466;2022-09-29T10:33:53;159.98;;;10.38;;
7881;SDS011;3986;41.884;23.466;2022-09-29T10:36:22;55.90;;;5.65;;
7881;SDS011;3986;41.884;23.466;2022-09-29T10:38:50;143.52;;;10.38;;
7881;SDS011;3986;41.884;23.466;2022-09-29T10:41:18;63.33;;;5.95;;
7881;SDS011;3986;41.884;23.466;2022-09-29T10:43:46;106.85;;;7.65;;
7881;SDS011;3986;41.884;23.466;2022-09-29T10:46:46;82.55;;;8.10;;
7881;SDS011;3986;41.884;23.466;2022-09-29T10:49:17;79.65;;;7.05;;
7881;SDS011;3986;41.884;23.466;2022-09-29T10:51:53;139.10;;;11.85;;
7881;SDS011;3986;41.884;23.466;2022-09-29T10:54:23;147.02;;;12.20;;
7881;SDS011;3986;41.884;23.466;2022-09-29T10:56:51;70.43;;;6.50;;
7881;SDS011;3986;41.884;23.466;2022-09-29T10:59:19;71.32;;;7.88;;
7881;SDS011;3986;41.884;23.466;2022-09-29T11:01:48;70.32;;;7.28;;
7881;SDS011;3986;41.884;23.466;2022-09-29T11:04:19;98.22;;;7.72;;
7881;SDS011;3986;41.884;23.466;2022-09-29T11:06:49;115.38;;;8.43;;
7881;SDS011;3986;41.884;23.466;2022-09-29T11:09:30;62.00;;;5.97;;
7881;SDS011;3986;41.884;23.466;2022-09-29T11:12:02;101.22;;;8.10;;
7881;SDS011;3986;41.884;23.466;2022-09-29T11:14:31;93.97;;;7.65;;
7881;SDS011;3986;41.884;23.466;2022-09-29T11:17:18;98.93;;;8.23;;
7881;SDS011;3986;41.884;23.466;2022-09-29T11:19:48;82.97;;;7.18;;
7881;SDS011;3986;41.884;23.466;2022-09-29T11:22:22;66.40;;;5.85;;
7881;SDS011;3986;41.884;23.466;2022-09-29T11:25:08;87.78;;;7.15;;
7881;SDS011;3986;41.884;23.466;2022-09-29T11:27:50;72.05;;;6.50;;
7881;SDS011;3986;41.884;23.466;2022-09-29T11:30:26;92.05;;;8.32;;
7881;SDS011;3986;41.884;23.466;2022-09-29T11:33:08;119.45;;;9.85;;
7881;SDS011;3986;41.884;23.466;2022-09-29T11:35:50;50.75;;;5.45;;
7881;SDS011;3986;41.884;23.466;2022-09-29T11:38:28;42.22;;;5.07;;
7881;SDS011;3986;41.884;23.466;2022-09-29T11:41:18;49.05;;;5.93;;
7881;SDS011;3986;41.884;23.466;2022-09-29T11:44:03;66.05;;;6.93;;
7881;SDS011;3986;41.884;23.466;2022-09-29T11:46:46;134.50;;;10.70;;
7881;SDS011;3986;41.884;23.466;2022-09-29T11:49:32;67.25;;;7.03;;
7881;SDS011;3986;41.884;23.466;2022-09-29T11:52:19;106.30;;;9.57;;
7881;SDS011;3986;41.884;23.466;2022-09-29T11:55:01;53.25;;;6.47;;
7881;SDS011;3986;41.884;23.466;2022-09-29T11:57:43;104.75;;;8.93;;
7881;SDS011;3986;41.884;23.466;2022-09-29T12:00:19;84.93;;;8.52;;
7881;SDS011;3986;41.884;23.466;2022-09-29T12:05:56;50.47;;;6.20;;
7881;SDS011;3986;41.884;23.466;2022-09-29T12:08:40;49.55;;;6.95;;
7881;SDS011;3986;41.884;23.466;2022-09-29T12:11:22;44.67;;;7.13;;
7881;SDS011;3986;41.884;23.466;2022-09-29T12:13:59;42.88;;;7.45;;
7881;SDS011;3986;41.884;23.466;2022-09-29T12:16:31;51.20;;;7.40;;
7881;SDS011;3986;41.884;23.466;2022-09-29T12:19:03;58.97;;;8.93;;
7881;SDS011;3986;41.884;23.466;2022-09-29T12:21:36;40.72;;;7.00;;
7881;SDS011;3986;41.884;23.466;2022-09-29T12:24:09;43.63;;;8.35;;
7881;SDS011;3986;41.884;23.466;2022-09-29T12:26:40;41.78;;;7.20;;
7881;SDS011;3986;41.884;23.466;2022-09-29T12:29:21;73.80;;;9.88;;
7881;SDS011;3986;41.884;23.466;2022-09-29T12:31:56;60.25;;;8.63;;
7881;SDS011;3986;41.884;23.466;2022-09-29T12:34:29;47.45;;;7.70;;
7881;SDS011;3986;41.884;23.466;2022-09-29T12:37:03;39.33;;;7.80;;
7881;SDS011;3986;41.884;23.466;2022-09-29T12:39:42;38.67;;;7.43;;
7881;SDS011;3986;41.884;23.466;2022-09-29T12:45:21;30.40;;;8.10;;
7881;SDS011;3986;41.884;23.466;2022-09-29T12:47:54;25.73;;;6.32;;
7881;SDS011;3986;41.884;23.466;2022-09-29T12:50:27;39.78;;;7.93;;
7881;SDS011;3986;41.884;23.466;2022-09-29T12:52:59;52.10;;;7.60;;
7881;SDS011;3986;41.884;23.466;2022-09-29T12:55:34;44.88;;;7.72;;
7881;SDS011;3986;41.884;23.466;2022-09-29T12:58:10;49.80;;;7.75;;
7881;SDS011;3986;41.884;23.466;2022-09-29T13:00:41;32.83;;;6.72;;
7881;SDS011;3986;41.884;23.466;2022-09-29T13:03:18;46.08;;;7.40;;
7881;SDS011;3986;41.884;23.466;2022-09-29T13:12:09;52.75;;;7.70;;
7881;SDS011;3986;41.884;23.466;2022-09-29T13:14:53;37.97;;;9.00;;
7881;SDS011;3986;41.884;23.466;2022-09-29T13:17:38;32.92;;;8.13;;
7881;SDS011;3986;41.884;23.466;2022-09-29T13:23:28;28.65;;;8.25;;
7881;SDS011;3986;41.884;23.466;2022-09-29T13:29:19;26.90;;;6.95;;
7881;SDS011;3986;41.884;23.466;2022-09-29T13:31:48;33.40;;;9.68;;
7881;SDS011;3986;41.884;23.466;2022-09-29T13:34:26;65.60;;;12.38;;
7881;SDS011;3986;41.884;23.466;2022-09-29T13:37:03;43.92;;;15.45;;
7881;SDS011;3986;41.884;23.466;2022-09-29T13:39:32;37.63;;;10.48;;
7881;SDS011;3986;41.884;23.466;2022-09-29T13:47:45;40.60;;;10.88;;
7881;SDS011;3986;41.884;23.466;2022-09-29T13:56:08;27.75;;;7.38;;
7881;SDS011;3986;41.884;23.466;2022-09-29T13:58:38;35.58;;;8.18;;
7881;SDS011;3986;41.884;23.466;2022-09-29T14:01:31;30.75;;;8.43;;
7881;SDS011;3986;41.884;23.466;2022-09-29T14:07:01;22.58;;;8.00;;
7881;SDS011;3986;41.884;23.466;2022-09-29T14:09:30;25.13;;;9.15;;
7881;SDS011;3986;41.884;23.466;2022-09-29T14:12:01;38.00;;;12.35;;
7881;SDS011;3986;41.884;23.466;2022-09-29T14:14:33;25.15;;;8.43;;
7881;SDS011;3986;41.884;23.466;2022-09-29T14:17:06;35.33;;;9.35;;
7881;SDS011;3986;41.884;23.466;2022-09-29T14:19:38;28.00;;;8.18;;
7881;SDS011;3986;41.884;23.466;2022-09-29T14:28:20;42.25;;;9.30;;
7881;SDS011;3986;41.884;23.466;2022-09-29T14:30:56;31.08;;;8.32;;
7881;SDS011;3986;41.884;23.466;2022-09-29T14:33:32;31.70;;;9.05;;
7881;SDS011;3986;41.884;23.466;2022-09-29T14:36:03;26.70;;;7.30;;
7881;SDS011;3986;41.884;23.466;2022-09-29T14:38:32;41.78;;;8.52;;
7881;SDS011;3986;41.884;23.466;2022-09-29T14:41:22;48.72;;;9.48;;
7881;SDS011;3986;41.884;23.466;2022-09-29T14:43:51;46.38;;;8.43;;
7881;SDS011;3986;41.884;23.466;2022-09-29T14:52:42;49.60;;;15.43;;
7881;SDS011;3986;41.884;23.466;2022-09-29T14:55:19;50.53;;;12.02;;
7881;SDS011;3986;41.884;23.466;2022-09-29T14:57:56;15.02;;;6.28;;
7881;SDS011;3986;41.884;23.466;2022-09-29T15:00:32;39.92;;;8.57;;
7881;SDS011;3986;41.884;23.466;2022-09-29T15:03:07;35.70;;;9.05;;
7881;SDS011;3986;41.884;23.466;2022-09-29T15:05:36;38.03;;;28.88;;
7881;SDS011;3986;41.884;23.466;2022-09-29T15:08:27;80.88;;;33.17;;
7881;SDS011;3986;41.884;23.466;2022-09-29T15:10:56;71.32;;;64.03;;
7881;SDS011;3986;41.884;23.466;2022-09-29T15:13:23;52.28;;;23.90;;
7881;SDS011;3986;41.884;23.466;2022-09-29T15:15:57;36.25;;;13.93;;
7881;SDS011;3986;41.884;23.466;2022-09-29T15:18:34;51.33;;;15.80;;
7881;SDS011;3986;41.884;23.466;2022-09-29T15:21:24;31.48;;;11.77;;
7881;SDS011;3986;41.884;23.466;2022-09-29T15:26:53;33.83;;;13.20;;
7881;SDS011;3986;41.884;23.466;2022-09-29T15:29:20;31.38;;;10.27;;
7881;SDS011;3986;41.884;23.466;2022-09-29T15:31:47;33.05;;;13.07;;
7881;SDS011;3986;41.884;23.466;2022-09-29T15:34:16;52.92;;;18.23;;
7881;SDS011;3986;41.884;23.466;2022-09-29T15:36:47;49.97;;;15.43;;
7881;SDS011;3986;41.884;23.466;2022-09-29T15:39:39;66.97;;;32.42;;
7881;SDS011;3986;41.884;23.466;2022-09-29T15:42:13;58.03;;;27.60;;
7881;SDS011;3986;41.884;23.466;2022-09-29T15:44:46;57.42;;;29.42;;
7881;SDS011;3986;41.884;23.466;2022-09-29T15:47:20;43.30;;;18.17;;
7881;SDS011;3986;41.884;23.466;2022-09-29T15:49:49;57.78;;;32.28;;
7881;SDS011;3986;41.884;23.466;2022-09-29T15:52:18;56.88;;;42.00;;
7881;SDS011;3986;41.884;23.466;2022-09-29T15:54:48;49.50;;;21.15;;
7881;SDS011;3986;41.884;23.466;2022-09-29T16:03:25;37.53;;;27.92;;